createdAt,value
2022-10-21T00:02:43.471Z,4.67
2022-10-21T00:07:50.688Z,6.13
2022-10-21T00:12:56.022Z,7.10
2022-10-21T00:18:01.914Z,3.45
2022-10-21T00:23:07.189Z,5.15
2022-10-21T00:28:12.325Z,3.22
2022-10-21T00:33:17.394Z,4.07
2022-10-21T00:43:33.368Z,6.65
2022-10-21T00:48:42.573Z,7.37
2022-10-21T00:54:17.371Z,4.97
2022-10-21T00:59:23.628Z,7.38
2022-10-21T01:04:29.053Z,6.07
2022-10-21T01:09:34.235Z,6.60
2022-10-21T01:14:57.964Z,4.68
2022-10-21T01:25:53.779Z,3.47
2022-10-21T01:31:17.575Z,3.65
2022-10-21T01:36:25.845Z,3.17
2022-10-21T01:41:49.468Z,7.00
2022-10-21T01:47:04.866Z,4.50
2022-10-21T01:52:13.813Z,3.95
2022-10-21T01:57:22.294Z,6.35
2022-10-21T02:02:29.450Z,3.55
2022-10-21T02:07:39.600Z,5.80
2022-10-21T02:12:46.362Z,6.53
2022-10-21T02:17:57.880Z,5.78
2022-10-21T02:23:03.585Z,8.27
2022-10-21T02:28:09.006Z,5.40
2022-10-21T02:33:21.238Z,3.77
2022-10-21T02:38:29.294Z,3.65
2022-10-21T02:43:34.687Z,5.28
2022-10-21T02:48:41.147Z,6.22
2022-10-21T02:58:51.334Z,5.18
2022-10-21T03:03:56.924Z,4.30
2022-10-21T03:09:02.302Z,6.00
2022-10-21T03:14:07.299Z,6.05
2022-10-21T03:19:13.380Z,7.07
2022-10-21T03:24:28.574Z,4.63
2022-10-21T03:29:34.546Z,7.63
2022-10-21T03:34:39.903Z,4.97
2022-10-21T03:39:45.250Z,5.68
2022-10-21T03:44:50.490Z,6.03
2022-10-21T03:49:55.783Z,5.97
2022-10-21T03:55:00.716Z,6.78
2022-10-21T04:00:27.071Z,4.65
2022-10-21T04:05:34.620Z,5.78
2022-10-21T04:10:39.611Z,4.10
2022-10-21T04:15:45.209Z,4.72
2022-10-21T04:20:50.449Z,3.83
2022-10-21T04:25:55.595Z,6.20
2022-10-21T04:31:01.077Z,4.45
2022-10-21T04:36:07.527Z,6.90
2022-10-21T04:41:16.658Z,4.97
2022-10-21T04:46:22.716Z,4.22
2022-10-21T04:51:28.032Z,7.07
2022-10-21T04:56:33.581Z,6.77
2022-10-21T05:01:38.815Z,7.30
2022-10-21T05:06:43.905Z,7.00
2022-10-21T05:11:49.458Z,7.10
2022-10-21T05:16:54.297Z,7.00
2022-10-21T05:21:59.495Z,6.25
2022-10-21T05:27:04.823Z,9.27
2022-10-21T05:32:10.781Z,5.75
2022-10-21T05:37:15.953Z,7.75
2022-10-21T05:42:21.874Z,8.32
2022-10-21T05:47:27.387Z,7.68
2022-10-21T05:52:32.471Z,8.43
2022-10-21T05:57:38.449Z,4.93
2022-10-21T06:02:43.832Z,5.85
2022-10-21T06:07:49.690Z,7.90
2022-10-21T06:12:54.585Z,5.37
2022-10-21T06:18:02.629Z,9.27
2022-10-21T06:23:07.920Z,11.20
2022-10-21T06:28:16.117Z,8.77
2022-10-21T06:33:26.068Z,10.75
2022-10-21T06:38:34.471Z,11.15
2022-10-21T06:43:39.879Z,7.15
2022-10-21T06:48:45.218Z,13.63
2022-10-21T06:53:53.490Z,6.65
2022-10-21T06:58:59.767Z,7.00
2022-10-21T07:04:08.438Z,8.20
2022-10-21T07:09:14.038Z,11.10
2022-10-21T07:14:19.601Z,8.60
2022-10-21T07:19:25.013Z,7.05
2022-10-21T07:24:30.072Z,6.55
2022-10-21T07:29:35.403Z,13.35
2022-10-21T07:34:40.565Z,11.45
2022-10-21T07:39:48.742Z,9.30
2022-10-21T07:44:58.621Z,7.00
2022-10-21T07:50:04.317Z,14.50
2022-10-21T07:55:09.699Z,8.68
2022-10-21T08:00:15.242Z,7.83
2022-10-21T08:05:20.813Z,11.32
2022-10-21T08:10:26.770Z,8.60
2022-10-21T08:15:32.191Z,13.53
2022-10-21T08:20:40.541Z,18.50
2022-10-21T08:25:50.216Z,10.52
2022-10-21T08:30:56.508Z,12.80
2022-10-21T08:36:01.683Z,9.52
2022-10-21T08:41:19.114Z,16.23
2022-10-21T08:46:26.867Z,12.13
2022-10-21T08:51:36.065Z,10.70
2022-10-21T08:56:41.582Z,12.13
2022-10-21T09:01:51.650Z,11.50
2022-10-21T09:06:56.640Z,10.38
2022-10-21T09:12:13.749Z,10.20
2022-10-21T09:17:31.352Z,11.00
2022-10-21T09:22:36.777Z,19.67
2022-10-21T09:27:55.037Z,12.70
2022-10-21T09:33:02.808Z,11.02
2022-10-21T09:38:25.704Z,17.88
2022-10-21T09:43:31.299Z,12.10
2022-10-21T09:54:23.213Z,18.55
2022-10-21T09:59:32.958Z,20.00
2022-10-21T10:09:57.213Z,11.50
2022-10-21T10:15:22.318Z,9.97
2022-10-21T10:20:31.126Z,12.07
2022-10-21T10:25:38.013Z,18.17
2022-10-21T10:30:46.437Z,17.25
2022-10-21T10:35:56.144Z,11.20
2022-10-21T10:41:11.106Z,13.27
2022-10-21T10:51:47.979Z,16.20
2022-10-21T10:56:53.436Z,24.67
2022-10-21T11:01:58.650Z,17.05
2022-10-21T11:07:24.083Z,14.57
2022-10-21T11:12:29.334Z,12.02
2022-10-21T11:17:56.768Z,17.93
2022-10-21T11:23:23.444Z,17.00
2022-10-21T11:28:40.474Z,14.57
2022-10-21T11:34:04.508Z,17.25
2022-10-21T11:39:21.495Z,14.10
2022-10-21T11:44:29.302Z,14.00
2022-10-21T11:50:01.533Z,12.88
2022-10-21T11:55:24.717Z,24.17
2022-10-21T12:00:34.387Z,12.07
2022-10-21T12:05:52.337Z,14.23
2022-10-21T12:11:01.513Z,11.02
2022-10-21T12:16:13.455Z,17.60
2022-10-21T12:21:22.791Z,16.15
2022-10-21T12:26:43.255Z,15.27
2022-10-21T12:31:48.943Z,14.00
2022-10-21T12:36:57.253Z,11.13
2022-10-21T12:42:14.103Z,10.90
2022-10-21T12:47:43.577Z,12.77
2022-10-21T12:53:13.963Z,16.90
2022-10-21T12:58:35.897Z,12.38
2022-10-21T13:03:53.437Z,16.10
2022-10-21T13:08:59.041Z,13.50
2022-10-21T13:14:35.385Z,13.17
2022-10-21T13:19:42.015Z,14.82
2022-10-21T13:24:49.049Z,16.13
2022-10-21T13:29:54.999Z,14.65
2022-10-21T13:35:25.517Z,12.13
2022-10-21T13:46:20.271Z,14.23
2022-10-21T13:51:30.341Z,10.63
2022-10-21T13:56:37.287Z,14.27
2022-10-21T14:02:11.560Z,12.07
2022-10-21T14:07:20.687Z,9.63
2022-10-21T14:12:38.573Z,16.17
2022-10-21T14:17:46.906Z,19.58
2022-10-21T14:22:53.021Z,10.50
2022-10-21T14:28:07.889Z,12.82
2022-10-21T14:33:24.415Z,9.38
2022-10-21T14:38:31.221Z,9.57
2022-10-21T14:43:38.398Z,9.45
2022-10-21T14:48:55.635Z,12.43
2022-10-21T14:59:26.793Z,13.55
2022-10-21T15:04:55.775Z,10.13
2022-10-21T15:10:10.017Z,9.30
2022-10-21T15:15:33.810Z,14.88
2022-10-21T15:20:40.859Z,8.50
2022-10-21T15:25:46.228Z,11.32
2022-10-21T15:30:53.783Z,8.30
2022-10-21T15:36:06.598Z,9.30
2022-10-21T15:41:15.291Z,10.68
2022-10-21T15:46:24.120Z,7.88
2022-10-21T15:51:29.137Z,9.77
2022-10-21T15:56:33.956Z,8.77
2022-10-21T16:01:39.504Z,16.38
2022-10-21T16:06:49.718Z,10.50
2022-10-21T16:12:01.095Z,8.98
2022-10-21T16:17:06.897Z,7.13
2022-10-21T16:22:26.397Z,6.80
2022-10-21T16:27:43.777Z,7.68
2022-10-21T16:32:58.529Z,9.63
2022-10-21T16:38:04.014Z,10.88
2022-10-21T16:43:09.382Z,10.35
2022-10-21T16:48:17.865Z,11.02
2022-10-21T16:53:23.743Z,9.07
2022-10-21T16:58:28.918Z,13.67
2022-10-21T17:03:34.348Z,12.05
2022-10-21T17:08:40.058Z,9.37
2022-10-21T17:13:45.873Z,8.40
2022-10-21T17:18:54.612Z,6.28
2022-10-21T17:24:00.235Z,11.05
2022-10-21T17:29:05.788Z,6.97
2022-10-21T17:34:17.169Z,9.57
2022-10-21T17:39:22.843Z,6.55
2022-10-21T17:44:28.070Z,7.77
2022-10-21T17:49:33.124Z,5.45
2022-10-21T17:54:38.513Z,6.35
2022-10-21T17:59:44.652Z,6.70
2022-10-21T18:09:54.832Z,6.72
2022-10-21T18:15:00.479Z,5.20
2022-10-21T18:20:05.995Z,5.77
2022-10-21T18:25:11.807Z,7.20
2022-10-21T18:30:17.192Z,8.57
2022-10-21T18:35:22.331Z,5.85
2022-10-21T18:40:28.434Z,7.57
2022-10-21T18:45:33.776Z,7.75
2022-10-21T18:50:41.623Z,7.47
2022-10-21T18:55:47.042Z,7.25
2022-10-21T19:00:53.244Z,6.60
2022-10-21T19:05:58.570Z,6.32
2022-10-21T19:11:03.467Z,8.90
2022-10-21T19:16:09.242Z,5.22
2022-10-21T19:21:14.641Z,5.72
2022-10-21T19:26:22.429Z,5.80
2022-10-21T19:31:28.743Z,8.43
2022-10-21T19:36:34.489Z,8.30
2022-10-21T19:41:39.916Z,5.03
2022-10-21T19:46:46.101Z,6.93
2022-10-21T19:51:51.096Z,7.88
2022-10-21T19:56:57.067Z,5.07
2022-10-21T20:02:02.161Z,4.65
2022-10-21T20:07:11.005Z,6.15
2022-10-21T20:12:16.630Z,10.50
2022-10-21T20:17:22.015Z,4.70
2022-10-21T20:22:27.733Z,5.70
2022-10-21T20:27:33.099Z,6.37
2022-10-21T20:32:39.197Z,7.53
2022-10-21T20:37:44.185Z,5.83
2022-10-21T20:42:49.969Z,10.32
2022-10-21T20:47:55.175Z,5.80
2022-10-21T20:53:00.552Z,7.57
2022-10-21T20:58:05.944Z,7.60
2022-10-21T21:03:11.208Z,5.27
2022-10-21T21:08:16.364Z,9.05
2022-10-21T21:13:21.733Z,5.47
2022-10-21T21:18:26.843Z,5.07
2022-10-21T21:23:31.873Z,5.53
2022-10-21T21:28:38.340Z,7.18
2022-10-21T21:33:45.276Z,6.22
2022-10-21T21:38:51.717Z,5.63
2022-10-21T21:43:58.199Z,8.15
2022-10-21T21:49:05.842Z,8.93
2022-10-21T21:54:11.516Z,4.63
2022-10-21T21:59:16.901Z,7.45
2022-10-21T22:04:22.083Z,5.67
2022-10-21T22:09:27.211Z,4.63
2022-10-21T22:14:32.880Z,7.15
2022-10-21T22:19:38.084Z,4.65
2022-10-21T22:24:43.720Z,6.70
2022-10-21T22:29:49.022Z,4.73
2022-10-21T22:34:54.174Z,5.40
2022-10-21T22:39:59.320Z,4.35
2022-10-21T22:45:04.524Z,7.10
2022-10-21T22:50:09.846Z,5.00
2022-10-21T22:55:15.227Z,4.30
2022-10-21T23:00:20.480Z,6.73
2022-10-21T23:05:25.871Z,4.95
2022-10-21T23:10:31.077Z,4.50
2022-10-21T23:15:37.040Z,8.02
2022-10-21T23:20:42.456Z,4.65
2022-10-21T23:25:47.643Z,4.50
2022-10-21T23:30:52.842Z,4.07
2022-10-21T23:35:58.426Z,5.90
2022-10-21T23:41:03.502Z,4.20
2022-10-21T23:46:09.162Z,6.47
2022-10-21T23:51:14.288Z,5.83
2022-10-21T23:56:19.459Z,7.10
